createdAt,value
2018-08-30T00:01:48.424Z,3.70
2018-08-30T00:04:16.259Z,3.50
2018-08-30T00:06:44.303Z,4.63
2018-08-30T00:09:12.185Z,3.90
2018-08-30T00:11:40.005Z,3.57
2018-08-30T00:14:07.856Z,4.00
2018-08-30T00:16:35.758Z,3.97
2018-08-30T00:19:03.612Z,5.03
2018-08-30T00:21:31.443Z,3.43
2018-08-30T00:23:59.278Z,3.50
2018-08-30T00:26:27.108Z,4.00
2018-08-30T00:28:54.959Z,4.00
2018-08-30T00:31:22.800Z,4.17
2018-08-30T00:33:50.627Z,3.70
2018-08-30T00:36:18.455Z,3.87
2018-08-30T00:38:46.287Z,4.07
2018-08-30T00:41:14.250Z,4.10
2018-08-30T00:43:42.104Z,3.73
2018-08-30T00:46:09.948Z,4.13
2018-08-30T00:48:37.789Z,3.90
2018-08-30T00:51:05.993Z,4.10
2018-08-30T00:53:33.811Z,4.30
2018-08-30T00:56:01.628Z,4.03
2018-08-30T00:58:29.446Z,3.70
2018-08-30T01:00:57.287Z,3.90
2018-08-30T01:03:25.118Z,3.80
2018-08-30T01:05:52.933Z,3.93
2018-08-30T01:08:20.773Z,3.80
2018-08-30T01:10:48.592Z,3.70
2018-08-30T01:13:16.741Z,3.93
2018-08-30T01:15:44.619Z,4.00
2018-08-30T01:18:12.436Z,4.27
2018-08-30T01:20:40.267Z,3.60
2018-08-30T01:23:08.220Z,3.73
2018-08-30T01:25:36.138Z,4.00
2018-08-30T01:28:03.991Z,4.37
2018-08-30T01:30:31.818Z,4.07
2018-08-30T01:32:59.653Z,4.27
2018-08-30T01:35:27.487Z,4.33
2018-08-30T01:37:55.322Z,4.17
2018-08-30T01:40:23.180Z,5.07
2018-08-30T01:42:51.040Z,4.33
2018-08-30T01:45:18.921Z,4.00
2018-08-30T01:47:46.752Z,4.57
2018-08-30T01:50:14.587Z,4.10
2018-08-30T01:52:42.426Z,4.60
2018-08-30T01:55:10.259Z,4.80
2018-08-30T01:57:38.090Z,4.67
2018-08-30T02:00:05.951Z,4.70
2018-08-30T02:02:34.754Z,4.43
2018-08-30T02:05:02.590Z,4.47
2018-08-30T02:07:30.436Z,5.10
2018-08-30T02:09:58.266Z,4.80
2018-08-30T02:12:26.096Z,5.13
2018-08-30T02:14:53.914Z,4.90
2018-08-30T02:17:21.787Z,4.70
2018-08-30T02:19:49.740Z,4.90
2018-08-30T02:22:17.571Z,5.20
2018-08-30T02:24:45.414Z,4.40
2018-08-30T02:27:13.250Z,4.97
2018-08-30T02:29:41.066Z,4.27
2018-08-30T02:32:08.903Z,4.03
2018-08-30T02:34:36.737Z,4.50
2018-08-30T02:37:04.612Z,4.87
2018-08-30T02:39:32.488Z,4.73
2018-08-30T02:42:00.314Z,4.47
2018-08-30T02:44:28.135Z,4.70
2018-08-30T02:46:56.096Z,4.73
2018-08-30T02:49:24.228Z,5.23
2018-08-30T02:51:52.057Z,4.57
2018-08-30T02:54:19.931Z,4.83
2018-08-30T02:56:47.762Z,4.60
2018-08-30T02:59:15.639Z,5.00
2018-08-30T03:01:43.485Z,5.30
2018-08-30T03:04:11.319Z,4.73
2018-08-30T03:06:39.154Z,4.23
2018-08-30T03:09:07.698Z,5.33
2018-08-30T03:11:35.537Z,5.17
2018-08-30T03:14:03.378Z,4.80
2018-08-30T03:16:31.195Z,5.07
2018-08-30T03:18:59.035Z,4.90
2018-08-30T03:21:27.469Z,5.17
2018-08-30T03:23:55.295Z,5.03
2018-08-30T03:26:23.125Z,5.30
2018-08-30T03:28:50.980Z,5.60
2018-08-30T03:31:18.820Z,4.70
2018-08-30T03:33:46.648Z,5.03
2018-08-30T03:36:14.469Z,5.17
2018-08-30T03:38:42.330Z,5.53
2018-08-30T03:41:10.164Z,5.17
2018-08-30T03:43:37.999Z,5.30
2018-08-30T03:46:05.843Z,4.80
2018-08-30T03:48:33.658Z,5.33
2018-08-30T03:51:01.500Z,5.07
2018-08-30T03:53:29.363Z,4.30
2018-08-30T03:55:57.196Z,4.87
2018-08-30T03:58:25.031Z,4.60
2018-08-30T04:00:52.853Z,5.10
2018-08-30T04:03:20.814Z,4.27
2018-08-30T04:05:48.643Z,4.43
2018-08-30T04:08:16.474Z,4.77
2018-08-30T04:10:44.350Z,4.33
2018-08-30T04:13:12.173Z,4.00
2018-08-30T04:15:40.007Z,4.90
2018-08-30T04:18:07.840Z,4.80
2018-08-30T04:20:35.662Z,4.13
2018-08-30T04:23:03.559Z,4.80
2018-08-30T04:25:31.510Z,5.20
2018-08-30T04:27:59.327Z,4.37
2018-08-30T04:30:27.174Z,4.87
2018-08-30T04:32:55.018Z,4.63
2018-08-30T04:35:22.990Z,4.60
2018-08-30T04:37:50.810Z,4.77
2018-08-30T04:40:18.667Z,4.80
2018-08-30T04:42:46.561Z,4.73
2018-08-30T04:45:14.379Z,4.87
2018-08-30T04:47:42.250Z,5.10
2018-08-30T04:50:10.145Z,4.83
2018-08-30T04:52:37.956Z,4.80
2018-08-30T04:55:05.952Z,5.13
2018-08-30T04:57:33.910Z,5.10
2018-08-30T05:00:01.744Z,4.97
2018-08-30T05:02:29.582Z,4.77
2018-08-30T05:04:57.402Z,4.80
2018-08-30T05:07:25.263Z,4.90
2018-08-30T05:09:53.149Z,5.23
2018-08-30T05:12:21.027Z,5.00
2018-08-30T05:14:48.892Z,4.33
2018-08-30T05:17:16.745Z,5.10
2018-08-30T05:19:44.570Z,4.63
2018-08-30T05:22:12.610Z,4.70
2018-08-30T05:24:40.472Z,5.43
2018-08-30T05:27:08.329Z,5.10
2018-08-30T05:29:36.208Z,5.30
2018-08-30T05:32:04.226Z,5.03
2018-08-30T05:34:32.070Z,5.07
2018-08-30T05:36:59.910Z,4.63
2018-08-30T05:39:27.755Z,5.50
2018-08-30T05:41:55.618Z,5.47
2018-08-30T05:44:23.435Z,5.00
2018-08-30T05:46:51.266Z,4.93
2018-08-30T05:49:19.132Z,5.00
2018-08-30T05:51:47.228Z,5.60
2018-08-30T05:54:15.142Z,4.40
2018-08-30T05:56:43.026Z,6.13
2018-08-30T05:59:11.015Z,4.83
2018-08-30T06:01:39.011Z,4.60
2018-08-30T06:04:06.926Z,5.20
2018-08-30T06:06:34.824Z,4.80
2018-08-30T06:09:02.829Z,5.20
2018-08-30T06:11:30.748Z,4.47
2018-08-30T06:13:58.750Z,5.17
2018-08-30T06:16:26.737Z,5.17
2018-08-30T06:18:54.700Z,5.60
2018-08-30T06:21:22.637Z,5.17
2018-08-30T06:23:50.864Z,4.77
2018-08-30T06:26:18.771Z,4.90
2018-08-30T06:28:46.727Z,5.53
2018-08-30T06:31:14.659Z,5.17
2018-08-30T06:33:42.674Z,4.90
2018-08-30T06:36:10.540Z,5.47
2018-08-30T06:38:38.504Z,5.57
2018-08-30T06:41:06.574Z,4.90
2018-08-30T06:43:34.425Z,4.83
2018-08-30T06:46:02.325Z,5.43
2018-08-30T06:48:30.764Z,4.70
2018-08-30T06:50:58.660Z,4.50
2018-08-30T06:53:26.590Z,5.40
2018-08-30T06:55:54.503Z,4.80
2018-08-30T06:58:22.460Z,5.30
2018-08-30T07:00:50.393Z,5.80
2018-08-30T07:03:18.300Z,5.50
2018-08-30T07:05:46.321Z,5.60
2018-08-30T07:08:14.264Z,5.40
2018-08-30T07:10:42.211Z,5.53
2018-08-30T07:13:10.184Z,5.30
2018-08-30T07:15:38.333Z,5.53
2018-08-30T07:18:06.154Z,5.93
2018-08-30T07:20:33.986Z,5.30
2018-08-30T07:23:02.427Z,5.00
2018-08-30T07:25:30.275Z,5.30
2018-08-30T07:27:58.134Z,5.93
2018-08-30T07:30:25.956Z,5.10
2018-08-30T07:32:53.781Z,5.20
2018-08-30T07:35:21.624Z,5.67
2018-08-30T07:37:49.530Z,5.90
2018-08-30T07:40:17.362Z,5.63
2018-08-30T07:42:45.194Z,6.43
2018-08-30T07:45:13.019Z,6.17
2018-08-30T07:47:40.853Z,6.63
2018-08-30T07:50:09.051Z,5.40
2018-08-30T07:52:37.128Z,6.37
2018-08-30T07:55:05.470Z,6.30
2018-08-30T07:57:33.547Z,5.70
2018-08-30T08:00:01.534Z,5.63
2018-08-30T08:02:29.296Z,5.27
2018-08-30T08:04:57.135Z,6.00
2018-08-30T08:07:25.086Z,6.50
2018-08-30T08:09:52.975Z,5.77
2018-08-30T08:12:20.928Z,5.67
2018-08-30T08:14:48.756Z,6.17
2018-08-30T08:17:16.640Z,6.27
2018-08-30T08:19:44.765Z,6.67
2018-08-30T08:22:12.644Z,6.17
2018-08-30T08:24:40.587Z,6.17
2018-08-30T08:27:08.462Z,6.37
2018-08-30T08:29:36.277Z,6.03
2018-08-30T08:32:04.135Z,6.23
2018-08-30T08:34:31.947Z,5.77
2018-08-30T08:36:59.858Z,6.30
2018-08-30T08:39:27.688Z,5.97
2018-08-30T08:41:55.567Z,7.03
2018-08-30T08:44:23.398Z,5.67
2018-08-30T08:46:51.245Z,6.23
2018-08-30T08:49:19.071Z,6.13
2018-08-30T08:51:46.941Z,7.20
2018-08-30T08:54:14.793Z,6.17
2018-08-30T08:56:42.852Z,5.90
2018-08-30T08:59:10.835Z,6.40
2018-08-30T09:01:38.853Z,6.47
2018-08-30T09:04:06.817Z,5.70
2018-08-30T09:06:34.696Z,7.30
2018-08-30T09:09:02.592Z,5.93
2018-08-30T09:11:30.458Z,5.93
2018-08-30T09:13:58.386Z,5.63
2018-08-30T09:16:26.299Z,5.83
2018-08-30T09:18:54.155Z,5.30
2018-08-30T09:21:22.097Z,5.17
2018-08-30T09:23:49.923Z,5.77
2018-08-30T09:26:17.763Z,5.83
2018-08-30T09:28:45.627Z,5.63
2018-08-30T09:31:13.483Z,5.67
2018-08-30T09:33:41.341Z,6.30
2018-08-30T09:36:09.167Z,6.33
2018-08-30T09:38:37.036Z,7.10
2018-08-30T09:41:04.933Z,7.30
2018-08-30T09:43:32.783Z,6.43
2018-08-30T09:46:00.671Z,5.83
2018-08-30T09:48:28.500Z,5.63
2018-08-30T09:50:56.319Z,5.60
2018-08-30T09:53:24.165Z,5.17
2018-08-30T09:55:51.992Z,5.20
2018-08-30T09:58:19.918Z,5.27
2018-08-30T10:00:52.967Z,6.07
2018-08-30T10:03:20.798Z,7.03
2018-08-30T10:05:48.641Z,6.57
2018-08-30T10:08:16.500Z,6.40
2018-08-30T10:10:44.327Z,6.57
2018-08-30T10:13:12.235Z,6.40
2018-08-30T10:15:40.091Z,6.30
2018-08-30T10:18:08.096Z,5.87
2018-08-30T10:20:36.006Z,6.50
2018-08-30T10:23:03.875Z,6.07
2018-08-30T10:25:31.829Z,6.03
2018-08-30T10:27:59.692Z,5.83
2018-08-30T10:30:27.688Z,6.03
2018-08-30T10:32:55.543Z,6.70
2018-08-30T10:35:23.857Z,6.30
2018-08-30T10:37:51.714Z,6.63
2018-08-30T10:40:19.615Z,6.13
2018-08-30T10:42:47.526Z,6.60
2018-08-30T10:45:15.349Z,5.63
2018-08-30T10:47:43.308Z,5.97
2018-08-30T10:50:11.175Z,6.17
2018-08-30T10:52:39.008Z,6.37
2018-08-30T10:55:06.827Z,5.77
2018-08-30T10:57:34.653Z,5.93
2018-08-30T11:00:02.637Z,6.53
2018-08-30T11:02:30.678Z,5.87
2018-08-30T11:04:58.733Z,5.93
2018-08-30T11:07:26.748Z,6.60
2018-08-30T11:09:54.628Z,5.93
2018-08-30T11:12:22.503Z,6.13
2018-08-30T11:14:50.484Z,6.77
2018-08-30T11:17:18.300Z,6.10
2018-08-30T11:19:46.164Z,7.07
2018-08-30T11:22:14.062Z,6.30
2018-08-30T11:24:41.926Z,6.20
2018-08-30T11:27:09.792Z,5.93
2018-08-30T11:29:37.634Z,6.57
2018-08-30T11:32:05.526Z,8.17
2018-08-30T11:34:39.963Z,6.40
2018-08-30T11:37:07.844Z,7.47
2018-08-30T11:39:35.715Z,7.00
2018-08-30T11:42:03.548Z,7.30
2018-08-30T11:44:31.369Z,6.90
2018-08-30T11:46:59.268Z,7.27
2018-08-30T11:49:27.109Z,7.87
2018-08-30T11:51:55.007Z,7.40
2018-08-30T11:54:23.131Z,8.00
2018-08-30T11:56:50.916Z,6.83
2018-08-30T11:59:18.753Z,7.30
2018-08-30T12:01:46.602Z,7.20
2018-08-30T12:04:14.471Z,7.30
2018-08-30T12:06:42.587Z,7.40
2018-08-30T12:09:11.306Z,7.43
2018-08-30T12:11:40.502Z,8.00
2018-08-30T12:14:08.390Z,6.87
2018-08-30T12:16:36.247Z,7.93
2018-08-30T12:19:04.555Z,7.90
2018-08-30T12:21:32.397Z,7.63
2018-08-30T12:24:00.307Z,7.97
2018-08-30T12:26:28.207Z,8.27
2018-08-30T12:28:56.212Z,7.83
2018-08-30T12:31:24.267Z,7.60
2018-08-30T12:33:52.227Z,8.13
2018-08-30T12:36:20.085Z,8.07
2018-08-30T12:38:48.055Z,7.43
2018-08-30T12:41:15.922Z,8.07
2018-08-30T12:43:43.912Z,8.03
2018-08-30T12:46:11.886Z,8.07
2018-08-30T12:48:39.761Z,7.87
2018-08-30T12:51:07.726Z,7.30
2018-08-30T12:53:35.681Z,7.40
2018-08-30T12:56:03.540Z,7.67
2018-08-30T12:58:31.521Z,7.03
2018-08-30T13:00:59.510Z,7.43
2018-08-30T13:03:27.408Z,7.37
2018-08-30T13:05:55.409Z,7.27
2018-08-30T13:08:23.275Z,7.80
2018-08-30T13:10:51.364Z,7.17
2018-08-30T13:13:19.144Z,7.20
2018-08-30T13:15:47.042Z,7.40
2018-08-30T13:18:14.836Z,6.47
2018-08-30T13:20:43.158Z,6.87
2018-08-30T13:23:17.218Z,6.83
2018-08-30T13:25:45.236Z,7.23
2018-08-30T13:28:13.072Z,6.87
2018-08-30T13:30:41.286Z,8.03
2018-08-30T13:33:09.159Z,7.40
2018-08-30T13:35:36.936Z,6.60
2018-08-30T13:38:05.057Z,6.27
2018-08-30T13:40:32.775Z,7.17
2018-08-30T13:43:00.684Z,7.20
2018-08-30T13:45:28.475Z,6.83
2018-08-30T13:47:56.460Z,6.80
2018-08-30T13:50:24.200Z,6.93
2018-08-30T13:52:52.151Z,7.47
2018-08-30T13:55:20.063Z,7.23
2018-08-30T13:57:48.305Z,7.07
2018-08-30T14:00:16.012Z,7.10
2018-08-30T14:02:43.898Z,7.47
2018-08-30T14:05:12.102Z,7.63
2018-08-30T14:07:39.728Z,7.90
2018-08-30T14:10:08.004Z,6.80
2018-08-30T14:12:35.455Z,7.40
2018-08-30T14:15:03.673Z,7.73
2018-08-30T14:17:31.012Z,8.23
2018-08-30T14:19:58.843Z,7.27
2018-08-30T14:22:26.676Z,7.67
2018-08-30T14:24:54.535Z,7.80
2018-08-30T14:27:22.441Z,7.20
2018-08-30T14:29:50.364Z,6.83
2018-08-30T14:32:18.228Z,6.67
2018-08-30T14:34:46.139Z,7.03
2018-08-30T14:37:13.995Z,7.27
2018-08-30T14:39:41.863Z,7.20
2018-08-30T14:42:09.689Z,7.87
2018-08-30T14:44:37.595Z,7.47
2018-08-30T14:47:05.744Z,7.20
2018-08-30T14:49:33.444Z,7.83
2018-08-30T14:52:01.388Z,7.07
2018-08-30T14:54:29.403Z,8.27
2018-08-30T14:56:57.217Z,7.53
2018-08-30T14:59:25.137Z,8.43
2018-08-30T15:01:52.998Z,8.00
2018-08-30T15:04:20.838Z,8.87
2018-08-30T15:06:48.817Z,7.50
2018-08-30T15:09:16.680Z,8.27
2018-08-30T15:11:44.700Z,8.60
2018-08-30T15:14:12.538Z,8.23
2018-08-30T15:16:40.379Z,7.87
2018-08-30T15:19:08.238Z,7.70
2018-08-30T15:21:36.088Z,7.50
2018-08-30T15:24:03.957Z,7.87
2018-08-30T15:26:31.844Z,7.03
2018-08-30T15:28:59.693Z,7.63
2018-08-30T15:31:27.651Z,8.07
2018-08-30T15:33:55.550Z,7.30
2018-08-30T15:36:23.368Z,7.93
2018-08-30T15:38:51.737Z,8.03
2018-08-30T15:41:19.696Z,8.83
2018-08-30T15:43:47.564Z,8.50
2018-08-30T15:46:15.450Z,8.10
2018-08-30T15:48:43.469Z,8.00
2018-08-30T15:51:11.149Z,8.20
2018-08-30T15:53:39.075Z,7.27
2018-08-30T15:56:06.898Z,8.37
2018-08-30T15:58:34.731Z,7.77
2018-08-30T16:01:02.645Z,7.53
2018-08-30T16:03:30.482Z,6.67
2018-08-30T16:05:58.416Z,6.63
2018-08-30T16:08:26.181Z,7.63
2018-08-30T16:10:54.059Z,7.63
2018-08-30T16:13:21.987Z,7.20
2018-08-30T16:15:49.783Z,7.33
2018-08-30T16:18:17.659Z,7.13
2018-08-30T16:20:45.508Z,7.13
2018-08-30T16:23:17.482Z,7.10
2018-08-30T16:25:45.203Z,7.10
2018-08-30T16:28:13.262Z,7.10
2018-08-30T16:30:41.164Z,7.70
2018-08-30T16:33:08.999Z,6.90
2018-08-30T16:35:36.843Z,7.20
2018-08-30T16:38:04.702Z,7.27
2018-08-30T16:40:32.567Z,7.17
2018-08-30T16:43:00.442Z,7.93
2018-08-30T16:45:28.310Z,7.07
2018-08-30T16:47:56.146Z,6.80
2018-08-30T16:50:23.997Z,6.33
2018-08-30T16:52:51.827Z,7.90
2018-08-30T16:55:19.715Z,7.37
2018-08-30T16:57:47.537Z,7.00
2018-08-30T17:00:15.494Z,7.17
2018-08-30T17:02:43.320Z,7.37
2018-08-30T17:05:11.183Z,6.67
2018-08-30T17:07:39.010Z,6.67
2018-08-30T17:10:06.901Z,7.40
2018-08-30T17:12:34.791Z,6.57
2018-08-30T17:15:02.739Z,7.93
2018-08-30T17:17:30.764Z,7.73
2018-08-30T17:19:58.619Z,7.33
2018-08-30T17:22:26.564Z,7.47
2018-08-30T17:24:54.433Z,6.57
2018-08-30T17:27:22.533Z,7.20
2018-08-30T17:29:50.690Z,6.87
2018-08-30T17:32:18.653Z,7.00
2018-08-30T17:34:46.550Z,7.20
2018-08-30T17:37:14.524Z,6.63
2018-08-30T17:39:42.367Z,6.90
2018-08-30T17:42:10.207Z,7.03
2018-08-30T17:44:38.083Z,7.13
2018-08-30T17:47:05.997Z,6.60
2018-08-30T17:49:33.827Z,6.10
2018-08-30T17:52:01.797Z,7.50
2018-08-30T17:54:29.641Z,7.30
2018-08-30T17:56:57.483Z,6.50
2018-08-30T17:59:25.313Z,6.97
2018-08-30T18:01:53.292Z,7.80
2018-08-30T18:04:21.141Z,7.20
2018-08-30T18:06:49.049Z,7.20
2018-08-30T18:09:16.952Z,7.07
2018-08-30T18:11:45.024Z,6.47
2018-08-30T18:14:12.887Z,6.23
2018-08-30T18:16:40.727Z,7.13
2018-08-30T18:19:08.638Z,6.50
2018-08-30T18:21:36.467Z,11.83
2018-08-30T18:24:04.464Z,6.93
2018-08-30T18:26:32.523Z,8.73
2018-08-30T18:29:00.350Z,8.03
2018-08-30T18:31:28.300Z,6.60
2018-08-30T18:33:56.148Z,7.20
2018-08-30T18:36:24.039Z,7.73
2018-08-30T18:38:52.059Z,7.73
2018-08-30T18:41:20.019Z,6.37
2018-08-30T18:43:47.907Z,6.73
2018-08-30T18:46:15.884Z,5.70
2018-08-30T18:48:43.735Z,6.80
2018-08-30T18:51:11.623Z,6.63
2018-08-30T18:53:39.501Z,6.53
2018-08-30T18:56:07.366Z,6.00
2018-08-30T18:58:35.223Z,6.87
2018-08-30T19:01:03.111Z,6.17
2018-08-30T19:03:30.985Z,5.80
2018-08-30T19:05:58.905Z,6.40
2018-08-30T19:08:26.775Z,6.73
2018-08-30T19:10:54.647Z,6.47
2018-08-30T19:13:22.706Z,6.90
2018-08-30T19:15:55.842Z,6.57
2018-08-30T19:18:28.764Z,6.50
2018-08-30T19:20:56.643Z,6.20
2018-08-30T19:23:24.587Z,7.13
2018-08-30T19:25:52.501Z,6.43
2018-08-30T19:28:20.419Z,6.80
2018-08-30T19:30:48.311Z,5.80
2018-08-30T19:33:16.159Z,6.67
2018-08-30T19:35:49.280Z,6.37
2018-08-30T19:38:17.160Z,6.43
2018-08-30T19:40:50.158Z,6.43
2018-08-30T19:43:18.032Z,6.73
2018-08-30T19:45:45.862Z,7.00
2018-08-30T19:48:13.707Z,6.50
2018-08-30T19:50:41.570Z,6.03
2018-08-30T19:53:09.447Z,6.40
2018-08-30T19:55:37.392Z,6.10
2018-08-30T19:58:05.327Z,6.57
2018-08-30T20:00:33.234Z,6.03
2018-08-30T20:03:01.133Z,6.33
2018-08-30T20:05:28.975Z,6.60
2018-08-30T20:07:56.838Z,6.17
2018-08-30T20:10:24.699Z,6.23
2018-08-30T20:12:52.530Z,6.23
2018-08-30T20:15:20.418Z,6.90
2018-08-30T20:17:48.267Z,6.00
2018-08-30T20:20:16.220Z,5.63
2018-08-30T20:22:44.176Z,7.67
2018-08-30T20:25:12.082Z,5.67
2018-08-30T20:27:40.093Z,6.40
2018-08-30T20:30:07.927Z,6.30
2018-08-30T20:32:35.905Z,6.57
2018-08-30T20:35:03.849Z,6.27
2018-08-30T20:37:31.723Z,6.17
2018-08-30T20:39:59.656Z,12.30
2018-08-30T20:42:27.532Z,7.10
2018-08-30T20:44:55.399Z,7.03
2018-08-30T20:47:23.261Z,5.50
2018-08-30T20:49:51.178Z,6.07
2018-08-30T20:52:19.021Z,5.37
2018-08-30T20:54:46.875Z,5.87
2018-08-30T20:57:14.814Z,6.43
2018-08-30T20:59:43.247Z,6.40
2018-08-30T21:02:11.141Z,6.10
2018-08-30T21:04:39.035Z,5.50
2018-08-30T21:07:06.893Z,6.93
2018-08-30T21:09:34.792Z,5.73
2018-08-30T21:12:02.652Z,5.97
2018-08-30T21:14:30.553Z,5.50
2018-08-30T21:16:58.535Z,5.43
2018-08-30T21:19:26.381Z,5.77
2018-08-30T21:21:54.392Z,5.17
2018-08-30T21:24:22.245Z,6.53
2018-08-30T21:26:50.167Z,5.70
2018-08-30T21:29:18.014Z,5.80
2018-08-30T21:31:46.499Z,5.60
2018-08-30T21:34:14.355Z,5.80
2018-08-30T21:36:42.189Z,5.60
2018-08-30T21:39:10.386Z,5.57
2018-08-30T21:41:38.217Z,5.53
2018-08-30T21:44:06.192Z,6.20
2018-08-30T21:46:34.381Z,6.17
2018-08-30T21:49:02.352Z,5.63
2018-08-30T21:51:30.282Z,5.43
2018-08-30T21:53:58.231Z,5.47
2018-08-30T21:56:26.158Z,5.13
2018-08-30T21:58:54.071Z,5.87
2018-08-30T22:01:21.987Z,5.90
2018-08-30T22:03:49.975Z,4.77
2018-08-30T22:06:17.952Z,5.23
2018-08-30T22:08:45.811Z,5.70
2018-08-30T22:11:13.738Z,6.00
2018-08-30T22:13:41.595Z,5.67
2018-08-30T22:16:09.463Z,6.30
2018-08-30T22:18:37.307Z,5.80
2018-08-30T22:21:05.183Z,6.20
2018-08-30T22:23:33.012Z,5.73
2018-08-30T22:26:00.900Z,5.73
2018-08-30T22:28:28.727Z,5.33
2018-08-30T22:30:56.587Z,5.53
2018-08-30T22:33:24.441Z,5.73
2018-08-30T22:35:52.318Z,5.03
2018-08-30T22:38:20.142Z,5.47
2018-08-30T22:40:48.055Z,6.03
2018-08-30T22:43:15.834Z,5.80
2018-08-30T22:45:43.712Z,5.60
2018-08-30T22:48:11.539Z,5.30
2018-08-30T22:50:39.387Z,5.47
2018-08-30T22:53:07.208Z,5.50
2018-08-30T22:55:35.030Z,5.67
2018-08-30T22:58:02.884Z,6.07
2018-08-30T23:00:30.726Z,5.73
2018-08-30T23:02:58.560Z,5.53
2018-08-30T23:05:26.655Z,5.47
2018-08-30T23:07:54.618Z,5.70
2018-08-30T23:10:22.463Z,5.17
2018-08-30T23:12:50.328Z,5.40
2018-08-30T23:15:18.260Z,5.10
2018-08-30T23:17:46.102Z,5.57
2018-08-30T23:20:13.976Z,5.63
2018-08-30T23:22:41.795Z,5.77
2018-08-30T23:25:09.635Z,4.73
2018-08-30T23:27:38.066Z,4.30
2018-08-30T23:30:06.566Z,5.20
2018-08-30T23:32:34.399Z,5.07
2018-08-30T23:35:02.265Z,4.63
2018-08-30T23:37:30.098Z,5.53
2018-08-30T23:39:57.962Z,4.47
2018-08-30T23:42:25.783Z,5.07
2018-08-30T23:44:53.617Z,5.30
2018-08-30T23:47:21.474Z,5.30
2018-08-30T23:49:49.621Z,4.90
2018-08-30T23:52:17.564Z,4.70
2018-08-30T23:54:45.434Z,5.00
2018-08-30T23:57:13.313Z,5.10
2018-08-30T23:59:46.463Z,5.13
